Big Bear Station Historical Data
Daily Summary for November 2, 2017 Units:  English    Metric   Both
« Previous Day
Next Day »
Daily Weekly Monthly Yearly Custom
  High: Low: Average:
Temperature: 48.6 °F 29.3 °F 37.4 °F
Dew Point: 38.5 °F 21.7 °F 31.2 °F
Humidity: 95 % 43 % 80 %
Wind Speed: 10.4 mph 0.0 mph 1.6 mph
Wind Gust: -999.0 mph - -
Wind:- - WSW
Pressure: 23.48 in 23.41 in -
Precipitation: 0.00 in    
Historical Graphs
 
 
Tabular Data for November 2, 2017
Time Temperature Dew Point Pressure Wind Wind Speed Wind Gust Humidity Rainfall Rate (Hourly)
00:06 35.2 °F 25.3 °F 23.43 in Calm   -999.0 mph 67 % 0 in
00:22 34.9 °F 25.1 °F 23.43 in Calm   -999.0 mph 67 % 0 in
00:37 34.3 °F 24.8 °F 23.43 in Calm   -999.0 mph 68 % 0 in
00:52 34.3 °F 24.8 °F 23.43 in Calm   -999.0 mph 68 % 0 in
01:07 34.2 °F 26.8 °F 23.43 in Calm   -999.0 mph 74 % 0 in
01:22 34.2 °F 30.2 °F 23.43 in Calm   -999.0 mph 85 % 0 in
01:38 34.2 °F 30.2 °F 23.43 in Calm   -999.0 mph 85 % 0 in
01:53 33.4 °F 27.6 °F 23.43 in Calm   -999.0 mph 79 % 0 in
02:08 33.6 °F 28.1 °F 23.42 in Calm   -999.0 mph 80 % 0 in
02:23 32.9 °F 27.7 °F 23.42 in Calm   -999.0 mph 81 % 0 in
02:38 32.7 °F 26.6 °F 23.42 in Calm   -999.0 mph 78 % 0 in
02:54 32.0 °F 25.3 °F 23.42 in Calm   -999.0 mph 76 % 0 in
03:09 32.0 °F 25.3 °F 23.42 in Calm   -999.0 mph 76 % 0 in
03:24 31.8 °F 24.5 °F 23.42 in Calm   -999.0 mph 74 % 0 in
03:39 31.5 °F 25.7 °F 23.42 in Calm   -999.0 mph 79 % 0 in
03:54 31.8 °F 27.8 °F 23.41 in Calm   -999.0 mph 85 % 0 in
04:10 32.4 °F 27.5 °F 23.42 in SSE 2.7 mph -999.0 mph 82 % 0 in
04:25 32.2 °F 25.8 °F 23.41 in SE 1.1 mph -999.0 mph 77 % 0 in
04:40 32.0 °F 24.0 °F 23.42 in Calm   -999.0 mph 72 % 0 in
04:56 31.5 °F 24.8 °F 23.42 in Calm   -999.0 mph 76 % 0 in
05:11 31.5 °F 26.9 °F 23.42 in Calm   -999.0 mph 83 % 0 in
05:26 30.9 °F 25.8 °F 23.42 in Calm   -999.0 mph 81 % 0 in
05:41 30.9 °F 26.6 °F 23.42 in Calm   -999.0 mph 84 % 0 in
05:56 30.7 °F 27.6 °F 23.42 in Calm   -999.0 mph 88 % 0 in
06:12 30.4 °F 27.5 °F 23.42 in Calm   -999.0 mph 89 % 0 in
06:27 30.4 °F 27.5 °F 23.42 in Calm   -999.0 mph 89 % 0 in
06:42 29.8 °F 27.0 °F 23.42 in Calm   -999.0 mph 89 % 0 in
06:57 29.8 °F 27.2 °F 23.43 in Calm   -999.0 mph 90 % 0 in
07:13 29.7 °F 27.1 °F 23.43 in Calm   -999.0 mph 90 % 0 in
07:28 29.3 °F 26.7 °F 23.43 in Calm   -999.0 mph 90 % 0 in
07:43 29.7 °F 27.1 °F 23.43 in Calm   -999.0 mph 90 % 0 in
07:58 29.3 °F 26.7 °F 23.44 in Calm   -999.0 mph 90 % 0 in
08:13 29.5 °F 26.7 °F 23.44 in Calm   -999.0 mph 89 % 0 in
08:29 29.7 °F 26.9 °F 23.45 in Calm   -999.0 mph 89 % 0 in
08:44 31.5 °F 28.1 °F 23.45 in Calm   -999.0 mph 87 % 0 in
08:59 31.8 °F 28.9 °F 23.45 in Calm   -999.0 mph 89 % 0 in
09:14 33.6 °F 29.3 °F 23.45 in Calm   -999.0 mph 84 % 0 in
09:29 36.7 °F 27.5 °F 23.45 in Calm   -999.0 mph 69 % 0 in
09:45 41.5 °F 21.7 °F 23.45 in North 4.2 mph -999.0 mph 45 % 0 in
10:00 43.3 °F 23.9 °F 23.46 in NNW 6.8 mph -999.0 mph 46 % 0 in
10:15 44.6 °F 23.5 °F 23.46 in WNW 4.2 mph -999.0 mph 43 % 0 in
10:30 45.7 °F 24.5 °F 23.46 in SW 2.2 mph -999.0 mph 43 % 0 in
10:45 46.4 °F 28.3 °F 23.47 in SW 2.7 mph -999.0 mph 49 % 0 in
11:01 46.6 °F 29.9 °F 23.46 in East 2.2 mph -999.0 mph 52 % 0 in
11:16 46.8 °F 30.6 °F 23.46 in South 2.7 mph -999.0 mph 53 % 0 in
11:31 47.1 °F 30.8 °F 23.46 in West 3.7 mph -999.0 mph 53 % 0 in
11:46 47.3 °F 30.1 °F 23.47 in NNE 5.8 mph -999.0 mph 51 % 0 in
12:01 47.7 °F 34.1 °F 23.47 in NE 2.2 mph -999.0 mph 59 % 0 in
12:17 48.2 °F 36.6 °F 23.46 in SSE 10.4 mph -999.0 mph 64 % 0 in
12:32 48.4 °F 37.9 °F 23.46 in WNW 7.8 mph -999.0 mph 67 % 0 in
12:47 48.4 °F 37.9 °F 23.45 in WNW 3.2 mph -999.0 mph 67 % 0 in
13:03 48.2 °F 38.5 °F 23.46 in NW 4.7 mph -999.0 mph 69 % 0 in
13:18 48.6 °F 38.5 °F 23.45 in NW 7.3 mph -999.0 mph 68 % 0 in
13:34 47.1 °F 38.2 °F 23.45 in NW 4.7 mph -999.0 mph 71 % 0 in
13:49 47.3 °F 38.0 °F 23.45 in NW 5.8 mph -999.0 mph 70 % 0 in
14:05 45.5 °F 37.7 °F 23.45 in ESE 3.7 mph -999.0 mph 74 % 0 in
14:20 44.6 °F 37.8 °F 23.45 in West 4.7 mph -999.0 mph 77 % 0 in
14:35 44.2 °F 37.4 °F 23.44 in East 2.7 mph -999.0 mph 77 % 0 in
14:51 45.0 °F 37.9 °F 23.44 in WSW 4.7 mph -999.0 mph 76 % 0 in
15:06 43.7 °F 37.3 °F 23.44 in WSW 1.1 mph -999.0 mph 78 % 0 in
15:22 43.0 °F 37.9 °F 23.45 in WNW 5.3 mph -999.0 mph 82 % 0 in
15:37 42.1 °F 37.6 °F 23.45 in NW 3.2 mph -999.0 mph 84 % 0 in
15:52 41.7 °F 37.5 °F 23.45 in NNW 3.7 mph -999.0 mph 85 % 0 in
16:08 41.2 °F 37.3 °F 23.46 in NW 3.2 mph -999.0 mph 86 % 0 in
16:23 40.6 °F 37.0 °F 23.46 in NNW 4.2 mph -999.0 mph 87 % 0 in
16:39 40.5 °F 37.5 °F 23.46 in NNW 2.7 mph -999.0 mph 89 % 0 in
16:54 40.3 °F 37.3 °F 23.46 in NNW 3.2 mph -999.0 mph 89 % 0 in
17:09 40.3 °F 37.3 °F 23.46 in WNW 1.7 mph -999.0 mph 89 % 0 in
17:25 40.1 °F 37.1 °F 23.46 in NNW 1.1 mph -999.0 mph 89 % 0 in
17:40 39.4 °F 36.4 °F 23.46 in Calm   -999.0 mph 89 % 0 in
17:55 38.7 °F 35.7 °F 23.46 in Calm   -999.0 mph 89 % 0 in
18:10 38.3 °F 35.3 °F 23.46 in WNW 2.2 mph -999.0 mph 89 % 0 in
18:26 38.3 °F 35.6 °F 23.46 in Calm   -999.0 mph 90 % 0 in
18:41 38.1 °F 35.4 °F 23.46 in West 1.1 mph -999.0 mph 90 % 0 in
18:56 37.9 °F 35.2 °F 23.47 in SW 2.2 mph -999.0 mph 90 % 0 in
19:11 37.9 °F 35.5 °F 23.47 in Calm   -999.0 mph 91 % 0 in
19:27 37.9 °F 35.5 °F 23.47 in Calm   -999.0 mph 91 % 0 in
19:42 37.9 °F 35.2 °F 23.48 in Calm   -999.0 mph 90 % 0 in
19:57 37.6 °F 34.7 °F 23.48 in Calm   -999.0 mph 89 % 0 in
20:28 37.0 °F 34.3 °F 23.48 in Calm   -999.0 mph 90 % 0 in
20:43 36.9 °F 34.5 °F 23.48 in NNE 3.2 mph -999.0 mph 91 % 0 in
20:58 36.7 °F 34.3 °F 23.48 in SSW 1.1 mph -999.0 mph 91 % 0 in
21:13 36.5 °F 33.8 °F 23.48 in Calm   -999.0 mph 90 % 0 in
21:28 36.5 °F 34.4 °F 23.48 in Calm   -999.0 mph 92 % 0 in
21:44 35.6 °F 33.5 °F 23.48 in Calm   -999.0 mph 92 % 0 in
21:59 34.5 °F 32.4 °F 23.48 in Calm   -999.0 mph 92 % 0 in
22:14 34.2 °F 32.4 °F 23.48 in Calm   -999.0 mph 93 % 0 in
22:29 34.0 °F 32.5 °F 23.48 in Calm   -999.0 mph 94 % 0 in
22:45 33.6 °F 32.1 °F 23.48 in Calm   -999.0 mph 94 % 0 in
23:00 33.3 °F 32.0 °F 23.48 in Calm   -999.0 mph 95 % 0 in
23:15 34.0 °F 32.7 °F 23.48 in NNW 1.7 mph -999.0 mph 95 % 0 in
23:30 34.5 °F 33.2 °F 23.48 in SSE 1.7 mph -999.0 mph 95 % 0 in
23:45 35.1 °F 33.0 °F 23.47 in NW 6.8 mph -999.0 mph 92 % 0 in
Big Bear CA Weather
Compliments of Weather Underground - 1.5 mb